createdAt,value
2019-01-25T00:00:11.385Z,75.42
2019-01-25T00:01:11.376Z,75.52
2019-01-25T00:02:11.371Z,75.62
2019-01-25T00:03:11.354Z,75.52
2019-01-25T00:04:11.344Z,75.94
2019-01-25T00:05:11.332Z,76.08
2019-01-25T00:06:11.321Z,76.08
2019-01-25T00:07:11.310Z,75.98
2019-01-25T00:08:11.300Z,75.66
2019-01-25T00:09:11.288Z,76.29
2019-01-25T00:10:11.279Z,76.82
2019-01-25T00:11:11.266Z,76.04
2019-01-25T00:12:11.256Z,76.18
2019-01-25T00:13:11.251Z,76.15
2019-01-25T00:14:11.235Z,76.18
2019-01-25T00:15:11.223Z,76.68
2019-01-25T00:16:11.220Z,76.68
2019-01-25T00:17:11.271Z,75.84
2019-01-25T00:18:11.193Z,75.76
2019-01-25T00:19:11.181Z,76.40
2019-01-25T00:20:11.263Z,76.40
2019-01-25T00:21:11.162Z,76.08
2019-01-25T00:22:11.149Z,77.14
2019-01-25T00:23:11.139Z,76.92
2019-01-25T00:24:11.129Z,76.82
2019-01-25T00:25:11.121Z,76.82
2019-01-25T00:26:11.105Z,76.29
2019-01-25T00:27:11.096Z,76.29
2019-01-25T00:28:11.085Z,76.50
2019-01-25T00:29:11.075Z,76.50
2019-01-25T00:30:11.063Z,76.29
2019-01-25T00:31:11.051Z,76.29
2019-01-25T00:32:11.043Z,76.29
2019-01-25T00:33:11.030Z,76.72
2019-01-25T00:34:11.026Z,76.82
2019-01-25T00:35:11.009Z,77.14
2019-01-25T00:36:11.018Z,76.72
2019-01-25T00:37:10.987Z,77.03
2019-01-25T00:38:10.978Z,76.82
2019-01-25T00:39:10.975Z,76.08
2019-01-25T00:40:10.958Z,76.40
2019-01-25T00:41:10.946Z,76.18
2019-01-25T00:42:10.937Z,76.15
2019-01-25T00:43:10.923Z,75.98
2019-01-25T00:44:10.912Z,75.55
2019-01-25T00:45:10.904Z,75.34
2019-01-25T00:46:10.897Z,75.98
2019-01-25T00:47:10.881Z,76.08
2019-01-25T00:48:10.872Z,76.18
2019-01-25T00:49:10.859Z,76.29
2019-01-25T00:50:10.849Z,76.50
2019-01-25T00:51:10.840Z,76.40
2019-01-25T00:52:10.826Z,76.40
2019-01-25T00:53:10.816Z,76.04
2019-01-25T00:54:10.809Z,75.62
2019-01-25T00:55:10.797Z,75.34
2019-01-25T00:56:10.787Z,75.34
2019-01-25T00:57:10.774Z,75.55
2019-01-25T00:58:10.765Z,75.98
2019-01-25T00:59:10.756Z,75.76
2019-01-25T01:00:10.743Z,75.55
2019-01-25T01:01:10.730Z,76.08
2019-01-25T01:02:10.720Z,75.94
2019-01-25T01:03:10.710Z,75.84
2019-01-25T01:04:10.700Z,75.73
2019-01-25T01:05:10.687Z,75.62
2019-01-25T01:06:10.677Z,75.42
2019-01-25T01:07:10.666Z,75.73
2019-01-25T01:08:10.655Z,75.73
2019-01-25T01:09:10.646Z,75.42
2019-01-25T01:10:14.203Z,75.52
2019-01-25T01:11:10.626Z,75.48
2019-01-25T01:12:10.613Z,75.42
2019-01-25T01:13:10.602Z,75.59
2019-01-25T01:14:10.590Z,75.59
2019-01-25T01:15:10.595Z,75.70
2019-01-25T01:16:11.492Z,75.59
2019-01-25T01:17:10.572Z,75.16
2019-01-25T01:18:10.547Z,74.85
2019-01-25T01:19:10.540Z,74.74
2019-01-25T01:20:10.527Z,75.27
2019-01-25T01:21:10.520Z,74.96
2019-01-25T01:22:10.511Z,74.74
2019-01-25T01:23:10.494Z,75.16
2019-01-25T01:24:10.485Z,74.54
2019-01-25T01:25:10.472Z,74.61
2019-01-25T01:26:10.464Z,74.43
2019-01-25T01:27:10.450Z,75.27
2019-01-25T01:28:10.446Z,74.43
2019-01-25T01:29:10.429Z,74.32
2019-01-25T01:30:10.419Z,74.54
2019-01-25T01:31:10.414Z,74.43
2019-01-25T01:32:10.398Z,74.43
2019-01-25T01:33:10.387Z,74.64
2019-01-25T01:34:10.378Z,74.54
2019-01-25T01:35:10.368Z,73.80
2019-01-25T01:36:10.356Z,74.32
2019-01-25T01:37:10.344Z,73.90
2019-01-25T01:38:10.335Z,73.80
2019-01-25T01:39:10.322Z,73.90
2019-01-25T01:40:10.315Z,74.22
2019-01-25T01:41:10.300Z,74.01
2019-01-25T01:42:10.289Z,73.90
2019-01-25T01:43:10.279Z,73.90
2019-01-25T01:44:10.273Z,73.90
2019-01-25T01:45:10.258Z,73.90
2019-01-25T01:46:10.246Z,73.69
2019-01-25T01:47:10.241Z,73.90
2019-01-25T01:48:10.278Z,74.54
2019-01-25T01:49:10.214Z,74.85
2019-01-25T01:50:10.205Z,75.27
2019-01-25T01:51:10.195Z,74.68
2019-01-25T01:52:10.182Z,74.99
2019-01-25T01:53:10.176Z,74.46
2019-01-25T01:54:10.161Z,74.78
2019-01-25T01:55:10.150Z,75.20
2019-01-25T01:56:10.141Z,75.20
2019-01-25T01:57:10.128Z,75.42
2019-01-25T01:58:10.118Z,75.31
2019-01-25T01:59:10.108Z,75.70
2019-01-25T02:00:10.096Z,75.27
2019-01-25T02:01:10.085Z,74.96
2019-01-25T02:02:10.078Z,75.06
2019-01-25T02:03:10.064Z,74.54
2019-01-25T02:04:10.056Z,74.32
2019-01-25T02:05:10.044Z,74.74
2019-01-25T02:06:10.031Z,75.06
2019-01-25T02:07:10.022Z,74.54
2019-01-25T02:08:10.019Z,75.48
2019-01-25T02:09:09.999Z,74.43
2019-01-25T02:10:09.990Z,74.74
2019-01-25T02:11:09.977Z,74.32
2019-01-25T02:12:09.967Z,74.54
2019-01-25T02:13:09.958Z,74.64
2019-01-25T02:14:09.947Z,74.85
2019-01-25T02:15:09.936Z,75.06
2019-01-25T02:16:09.925Z,74.96
2019-01-25T02:17:09.913Z,74.54
2019-01-25T02:18:09.905Z,74.64
2019-01-25T02:19:09.892Z,75.06
2019-01-25T02:20:09.881Z,74.64
2019-01-25T02:21:09.873Z,74.43
2019-01-25T02:22:09.862Z,74.54
2019-01-25T02:23:09.848Z,74.54
2019-01-25T02:24:09.837Z,75.16
2019-01-25T02:25:09.831Z,75.06
2019-01-25T02:26:09.817Z,74.50
2019-01-25T02:27:09.805Z,73.80
2019-01-25T02:28:09.795Z,74.01
2019-01-25T02:29:09.785Z,73.80
2019-01-25T02:30:09.774Z,74.01
2019-01-25T02:31:09.766Z,74.54
2019-01-25T02:32:09.755Z,74.96
2019-01-25T02:33:09.742Z,74.01
2019-01-25T02:34:09.731Z,73.80
2019-01-25T02:35:09.723Z,73.90
2019-01-25T02:36:09.711Z,75.27
2019-01-25T02:37:09.698Z,74.85
2019-01-25T02:38:09.693Z,75.06
2019-01-25T02:39:09.680Z,74.85
2019-01-25T02:40:09.682Z,74.40
2019-01-25T02:41:09.659Z,75.06
2019-01-25T02:42:09.645Z,75.06
2019-01-25T02:43:09.638Z,74.74
2019-01-25T02:44:09.626Z,74.85
2019-01-25T02:45:09.611Z,73.90
2019-01-25T02:46:09.601Z,74.08
2019-01-25T02:47:09.592Z,73.90
2019-01-25T02:48:09.581Z,74.43
2019-01-25T02:49:09.571Z,74.43
2019-01-25T02:50:09.559Z,74.50
2019-01-25T02:51:09.549Z,73.87
2019-01-25T02:52:09.538Z,73.97
2019-01-25T02:53:09.528Z,73.87
2019-01-25T02:54:09.517Z,73.97
2019-01-25T02:55:09.508Z,73.97
2019-01-25T02:56:09.501Z,73.58
2019-01-25T02:57:09.514Z,73.69
2019-01-25T02:58:09.475Z,73.80
2019-01-25T02:59:09.461Z,75.27
2019-01-25T03:00:09.459Z,74.54
2019-01-25T03:01:09.440Z,74.96
2019-01-25T03:02:09.430Z,75.27
2019-01-25T03:03:09.419Z,74.64
2019-01-25T03:04:09.409Z,74.96
2019-01-25T03:05:09.397Z,74.74
2019-01-25T03:06:09.387Z,74.54
2019-01-25T03:07:09.377Z,75.10
2019-01-25T03:08:09.369Z,74.99
2019-01-25T03:09:09.357Z,75.42
2019-01-25T03:10:09.343Z,75.59
2019-01-25T03:11:09.333Z,76.01
2019-01-25T03:12:09.324Z,75.59
2019-01-25T03:13:09.316Z,74.96
2019-01-25T03:14:09.303Z,74.96
2019-01-25T03:15:09.289Z,74.85
2019-01-25T03:16:09.282Z,74.68
2019-01-25T03:17:09.267Z,74.88
2019-01-25T03:18:09.269Z,74.88
2019-01-25T03:19:09.248Z,75.62
2019-01-25T03:20:09.237Z,75.31
2019-01-25T03:21:09.228Z,75.73
2019-01-25T03:22:09.215Z,75.16
2019-01-25T03:23:09.204Z,75.70
2019-01-25T03:24:09.197Z,75.48
2019-01-25T03:25:09.185Z,74.85
2019-01-25T03:26:09.177Z,75.06
2019-01-25T03:27:09.160Z,74.85
2019-01-25T03:28:09.149Z,74.74
2019-01-25T03:29:09.143Z,75.16
2019-01-25T03:30:09.132Z,75.70
2019-01-25T03:31:09.154Z,75.48
2019-01-25T03:32:09.108Z,75.06
2019-01-25T03:33:09.102Z,75.27
2019-01-25T03:34:09.085Z,75.27
2019-01-25T03:35:09.083Z,74.96
2019-01-25T03:36:09.065Z,75.38
2019-01-25T03:37:09.052Z,75.59
2019-01-25T03:38:09.042Z,75.48
2019-01-25T03:39:09.031Z,75.80
2019-01-25T03:40:09.024Z,75.70
2019-01-25T03:41:09.013Z,75.70
2019-01-25T03:42:08.998Z,75.24
2019-01-25T03:43:08.989Z,75.16
2019-01-25T03:44:08.988Z,74.85
2019-01-25T03:45:08.967Z,75.27
2019-01-25T03:46:08.959Z,75.70
2019-01-25T03:47:08.948Z,75.70
2019-01-25T03:48:08.934Z,75.38
2019-01-25T03:49:08.929Z,75.27
2019-01-25T03:50:08.928Z,75.27
2019-01-25T03:51:08.903Z,75.27
2019-01-25T03:52:08.899Z,75.59
2019-01-25T03:53:08.881Z,75.59
2019-01-25T03:54:08.876Z,75.48
2019-01-25T03:55:08.859Z,75.90
2019-01-25T03:56:08.851Z,75.80
2019-01-25T03:57:08.849Z,75.48
2019-01-25T03:58:08.832Z,74.96
2019-01-25T03:59:08.822Z,74.96
2019-01-25T04:00:08.807Z,75.03
2019-01-25T04:01:08.796Z,74.64
2019-01-25T04:02:08.784Z,75.06
2019-01-25T04:03:08.779Z,75.70
2019-01-25T04:04:08.816Z,75.48
2019-01-25T04:05:08.769Z,75.80
2019-01-25T04:06:08.741Z,75.48
2019-01-25T04:07:08.731Z,75.27
2019-01-25T04:08:08.724Z,75.38
2019-01-25T04:09:08.710Z,75.27
2019-01-25T04:10:08.702Z,75.06
2019-01-25T04:11:08.687Z,75.27
2019-01-25T04:12:08.676Z,75.06
2019-01-25T04:13:08.668Z,74.74
2019-01-25T04:14:08.681Z,74.85
2019-01-25T04:15:08.651Z,74.96
2019-01-25T04:16:08.639Z,74.85
2019-01-25T04:17:08.623Z,74.96
2019-01-25T04:18:08.619Z,74.96
2019-01-25T04:19:08.604Z,74.85
2019-01-25T04:20:08.592Z,75.48
2019-01-25T04:21:08.579Z,75.80
2019-01-25T04:22:08.571Z,75.34
2019-01-25T04:23:08.558Z,75.70
2019-01-25T04:24:08.549Z,75.16
2019-01-25T04:25:08.539Z,75.27
2019-01-25T04:26:08.528Z,75.16
2019-01-25T04:27:08.518Z,75.06
2019-01-25T04:28:08.507Z,74.82
2019-01-25T04:29:08.494Z,75.06
2019-01-25T04:30:08.485Z,74.96
2019-01-25T04:31:08.473Z,74.85
2019-01-25T04:32:08.463Z,74.96
2019-01-25T04:33:08.451Z,74.85
2019-01-25T04:34:08.443Z,74.74
2019-01-25T04:35:08.446Z,74.85
2019-01-25T04:36:08.419Z,75.16
2019-01-25T04:37:08.409Z,75.27
2019-01-25T04:38:08.409Z,75.34
2019-01-25T04:39:08.386Z,75.45
2019-01-25T04:40:08.382Z,75.76
2019-01-25T04:41:11.823Z,76.01
2019-01-25T04:42:08.354Z,75.38
2019-01-25T04:43:08.343Z,75.16
2019-01-25T04:44:08.344Z,75.70
2019-01-25T04:45:08.322Z,75.70
2019-01-25T04:46:08.321Z,75.66
2019-01-25T04:47:08.300Z,75.66
2019-01-25T04:48:08.290Z,75.24
2019-01-25T04:49:08.278Z,75.45
2019-01-25T04:50:08.268Z,75.34
2019-01-25T04:51:08.277Z,75.24
2019-01-25T04:52:08.248Z,75.45
2019-01-25T04:53:08.236Z,75.27
2019-01-25T04:54:08.228Z,75.76
2019-01-25T04:55:08.218Z,75.45
2019-01-25T04:56:08.203Z,75.66
2019-01-25T04:57:08.192Z,75.80
2019-01-25T04:58:08.182Z,75.48
2019-01-25T04:59:08.172Z,75.80
2019-01-25T05:00:08.160Z,75.66
2019-01-25T05:01:08.149Z,76.01
2019-01-25T05:02:08.142Z,75.76
2019-01-25T05:03:08.129Z,75.34
2019-01-25T05:04:08.128Z,76.12
2019-01-25T05:05:08.108Z,75.76
2019-01-25T05:06:08.096Z,75.70
2019-01-25T05:07:08.093Z,75.56
2019-01-25T05:08:08.078Z,75.76
2019-01-25T05:09:08.063Z,75.76
2019-01-25T05:10:08.054Z,75.98
2019-01-25T05:11:08.061Z,75.80
2019-01-25T05:12:08.034Z,75.24
2019-01-25T05:13:08.020Z,75.48
2019-01-25T05:14:08.012Z,75.59
2019-01-25T05:15:08.003Z,75.70
2019-01-25T05:16:07.989Z,75.45
2019-01-25T05:17:07.983Z,75.76
2019-01-25T05:18:07.975Z,76.32
2019-01-25T05:19:07.958Z,76.12
2019-01-25T05:20:07.948Z,76.22
2019-01-25T05:21:07.943Z,76.72
2019-01-25T05:22:07.925Z,76.64
2019-01-25T05:23:07.918Z,76.19
2019-01-25T05:24:07.906Z,76.08
2019-01-25T05:25:07.891Z,76.22
2019-01-25T05:26:07.887Z,76.40
2019-01-25T05:27:07.871Z,76.43
2019-01-25T05:28:09.662Z,76.22
2019-01-25T05:29:07.850Z,76.75
2019-01-25T05:30:07.839Z,76.61
2019-01-25T05:31:07.833Z,76.19
2019-01-25T05:32:07.818Z,75.98
2019-01-25T05:33:07.807Z,76.19
2019-01-25T05:34:07.795Z,75.98
2019-01-25T05:35:07.790Z,76.19
2019-01-25T05:36:07.774Z,75.76
2019-01-25T05:37:07.763Z,75.76
2019-01-25T05:38:07.752Z,75.34
2019-01-25T05:39:07.743Z,75.80
2019-01-25T05:40:07.734Z,76.61
2019-01-25T05:41:07.719Z,76.19
2019-01-25T05:42:07.710Z,76.50
2019-01-25T05:43:07.705Z,76.72
2019-01-25T05:44:07.690Z,76.82
2019-01-25T05:45:07.683Z,76.92
2019-01-25T05:46:07.666Z,76.50
2019-01-25T05:47:07.657Z,76.61
2019-01-25T05:48:07.645Z,76.61
2019-01-25T05:49:07.643Z,76.08
2019-01-25T05:50:07.629Z,76.19
2019-01-25T05:51:07.616Z,76.08
2019-01-25T05:52:07.604Z,75.87
2019-01-25T05:53:07.590Z,76.08
2019-01-25T05:54:07.584Z,76.40
2019-01-25T05:55:07.569Z,76.82
2019-01-25T05:56:07.562Z,75.87
2019-01-25T05:57:07.554Z,76.19
2019-01-25T05:58:07.539Z,76.19
2019-01-25T05:59:07.528Z,75.87
2019-01-25T06:00:07.523Z,76.08
2019-01-25T06:01:07.503Z,76.19
2019-01-25T06:02:07.498Z,75.98
2019-01-25T06:03:07.499Z,76.08
2019-01-25T06:04:07.472Z,76.50
2019-01-25T06:05:07.462Z,76.50
2019-01-25T06:06:07.453Z,76.32
2019-01-25T06:07:07.474Z,76.40
2019-01-25T06:08:07.433Z,76.29
2019-01-25T06:09:07.418Z,76.75
2019-01-25T06:10:07.407Z,76.43
2019-01-25T06:11:07.398Z,76.82
2019-01-25T06:12:07.385Z,76.40
2019-01-25T06:13:07.380Z,76.08
2019-01-25T06:14:07.365Z,76.19
2019-01-25T06:15:07.355Z,76.12
2019-01-25T06:16:07.344Z,76.29
2019-01-25T06:17:07.338Z,76.19
2019-01-25T06:18:07.321Z,76.22
2019-01-25T06:19:07.313Z,76.08
2019-01-25T06:20:07.300Z,75.98
2019-01-25T06:21:07.291Z,76.29
2019-01-25T06:22:07.292Z,76.29
2019-01-25T06:23:07.269Z,76.32
2019-01-25T06:24:07.257Z,76.32
2019-01-25T06:25:07.270Z,76.19
2019-01-25T06:26:07.240Z,76.50
2019-01-25T06:27:07.224Z,76.72
2019-01-25T06:28:07.220Z,76.75
2019-01-25T06:29:07.208Z,77.24
2019-01-25T06:30:07.192Z,77.03
2019-01-25T06:31:07.190Z,77.03
2019-01-25T06:32:07.170Z,77.06
2019-01-25T06:33:07.179Z,76.75
2019-01-25T06:34:07.157Z,76.92
2019-01-25T06:35:07.140Z,76.75
2019-01-25T06:36:07.128Z,77.03
2019-01-25T06:37:07.126Z,77.17
2019-01-25T06:38:07.114Z,76.22
2019-01-25T06:39:07.095Z,76.72
2019-01-25T06:40:07.089Z,77.28
2019-01-25T06:41:07.079Z,76.54
2019-01-25T06:42:07.063Z,77.24
2019-01-25T06:43:07.055Z,77.28
2019-01-25T06:44:07.049Z,77.17
2019-01-25T06:45:07.031Z,77.48
2019-01-25T06:46:07.019Z,77.28
2019-01-25T06:47:07.009Z,77.66
2019-01-25T06:48:07.002Z,77.70
2019-01-25T06:49:06.991Z,76.92
2019-01-25T06:50:06.977Z,77.56
2019-01-25T06:51:06.972Z,76.86
2019-01-25T06:52:06.959Z,77.77
2019-01-25T06:53:06.948Z,77.24
2019-01-25T06:54:06.935Z,77.45
2019-01-25T06:55:06.926Z,77.56
2019-01-25T06:56:06.917Z,77.56
2019-01-25T06:57:06.902Z,77.24
2019-01-25T06:58:06.899Z,76.92
2019-01-25T06:59:06.881Z,77.45
2019-01-25T07:00:06.869Z,77.45
2019-01-25T07:01:06.859Z,77.14
2019-01-25T07:02:06.848Z,77.03
2019-01-25T07:03:06.841Z,76.29
2019-01-25T07:04:06.831Z,77.24
2019-01-25T07:05:06.820Z,76.92
2019-01-25T07:06:06.805Z,77.98
2019-01-25T07:07:06.793Z,77.14
2019-01-25T07:08:06.783Z,76.57
2019-01-25T07:09:06.774Z,76.72
2019-01-25T07:10:06.764Z,76.47
2019-01-25T07:11:06.750Z,76.36
2019-01-25T07:12:06.741Z,76.47
2019-01-25T07:13:06.731Z,76.57
2019-01-25T07:14:06.721Z,77.42
2019-01-25T07:15:06.710Z,77.20
2019-01-25T07:16:06.701Z,76.36
2019-01-25T07:17:06.692Z,77.20
2019-01-25T07:18:06.676Z,76.57
2019-01-25T07:19:06.666Z,77.24
2019-01-25T07:20:06.658Z,76.36
2019-01-25T07:21:06.663Z,77.20
2019-01-25T07:22:06.637Z,77.00
2019-01-25T07:23:06.623Z,77.20
2019-01-25T07:24:06.611Z,77.42
2019-01-25T07:25:06.600Z,77.31
2019-01-25T07:26:06.594Z,77.94
2019-01-25T07:27:06.578Z,78.36
2019-01-25T07:28:06.567Z,76.78
2019-01-25T07:29:06.570Z,76.36
2019-01-25T07:30:06.572Z,77.10
2019-01-25T07:31:06.569Z,77.66
2019-01-25T07:32:06.526Z,77.87
2019-01-25T07:33:06.516Z,78.30
2019-01-25T07:34:06.519Z,77.77
2019-01-25T07:35:06.513Z,78.61
2019-01-25T07:36:06.550Z,79.42
2019-01-25T07:37:06.472Z,79.24
2019-01-25T07:38:06.461Z,78.92
2019-01-25T07:39:06.465Z,79.14
2019-01-25T07:40:06.458Z,79.24
2019-01-25T07:41:06.450Z,78.68
2019-01-25T07:42:06.419Z,78.72
2019-01-25T07:43:06.417Z,78.61
2019-01-25T07:44:06.397Z,78.82
2019-01-25T07:45:06.425Z,79.03
2019-01-25T07:46:06.378Z,77.73
2019-01-25T07:47:06.413Z,78.30
2019-01-25T07:48:06.355Z,78.30
2019-01-25T07:49:06.343Z,78.16
2019-01-25T07:50:06.352Z,78.08
2019-01-25T07:51:06.342Z,78.05
2019-01-25T07:52:06.312Z,77.84
2019-01-25T07:53:06.318Z,79.32
2019-01-25T07:54:06.289Z,79.52
2019-01-25T07:55:06.332Z,79.52
2019-01-25T07:56:06.285Z,78.78
2019-01-25T07:57:06.282Z,78.68
2019-01-25T07:58:06.252Z,77.77
2019-01-25T07:59:06.244Z,78.30
2019-01-25T08:00:06.237Z,79.03
2019-01-25T08:01:06.230Z,78.47
2019-01-25T08:02:06.233Z,79.14
2019-01-25T08:03:06.202Z,79.14
2019-01-25T08:04:06.216Z,79.84
2019-01-25T08:05:06.173Z,79.77
2019-01-25T08:06:06.160Z,78.78
2019-01-25T08:07:06.159Z,78.19
2019-01-25T08:08:06.146Z,78.58
2019-01-25T08:09:06.145Z,79.14
2019-01-25T08:10:06.127Z,78.92
2019-01-25T08:11:06.128Z,78.58
2019-01-25T08:12:07.477Z,79.03
2019-01-25T08:13:06.100Z,79.46
2019-01-25T08:14:06.101Z,79.66
2019-01-25T08:15:06.074Z,80.30
2019-01-25T08:16:06.052Z,79.77
2019-01-25T08:17:06.057Z,80.30
2019-01-25T08:18:06.072Z,80.19
2019-01-25T08:19:06.037Z,80.30
2019-01-25T08:20:06.021Z,80.16
2019-01-25T08:21:06.017Z,80.05
2019-01-25T08:22:06.010Z,81.32
2019-01-25T08:23:06.005Z,80.90
2019-01-25T08:24:06.039Z,81.32
2019-01-25T08:25:05.970Z,81.42
2019-01-25T08:26:05.985Z,81.28
2019-01-25T08:27:05.944Z,81.38
2019-01-25T08:28:05.941Z,81.38
2019-01-25T08:29:05.929Z,81.28
2019-01-25T08:30:05.925Z,81.49
2019-01-25T08:31:05.891Z,81.28
2019-01-25T08:32:05.945Z,81.28
2019-01-25T08:33:05.878Z,80.93
2019-01-25T08:34:05.885Z,80.33
2019-01-25T08:35:05.869Z,80.82
2019-01-25T08:36:05.881Z,80.86
2019-01-25T08:37:05.871Z,81.59
2019-01-25T08:38:06.621Z,80.96
2019-01-25T08:39:05.820Z,81.17
2019-01-25T08:40:05.825Z,81.03
2019-01-25T08:41:05.817Z,80.96
2019-01-25T08:42:05.774Z,81.91
2019-01-25T08:43:05.802Z,82.01
2019-01-25T08:44:05.750Z,81.98
2019-01-25T08:45:05.763Z,81.70
2019-01-25T08:46:05.732Z,81.49
2019-01-25T08:47:05.805Z,81.81
2019-01-25T08:48:05.773Z,81.38
2019-01-25T08:49:05.703Z,81.17
2019-01-25T08:50:05.722Z,81.70
2019-01-25T08:51:05.680Z,82.23
2019-01-25T08:52:05.728Z,82.54
2019-01-25T08:53:05.795Z,82.97
2019-01-25T08:54:05.739Z,82.43
2019-01-25T08:55:05.677Z,82.54
2019-01-25T08:56:05.630Z,83.17
2019-01-25T08:57:05.647Z,83.49
2019-01-25T08:58:05.611Z,83.39
2019-01-25T08:59:05.590Z,83.81
2019-01-25T09:00:05.588Z,83.49
2019-01-25T09:01:05.568Z,84.01
2019-01-25T09:02:05.556Z,83.81
2019-01-25T09:03:05.546Z,84.12
2019-01-25T09:04:05.542Z,84.23
2019-01-25T09:05:05.524Z,84.44
2019-01-25T09:06:05.513Z,84.33
2019-01-25T09:07:05.504Z,84.12
2019-01-25T09:08:05.491Z,83.87
2019-01-25T09:09:05.479Z,83.34
2019-01-25T09:10:05.470Z,83.07
2019-01-25T09:11:05.462Z,83.07
2019-01-25T09:12:05.448Z,83.59
2019-01-25T09:13:05.437Z,83.39
2019-01-25T09:14:05.429Z,83.56
2019-01-25T09:15:05.415Z,84.33
2019-01-25T09:16:05.404Z,84.23
2019-01-25T09:17:05.397Z,84.23
2019-01-25T09:18:05.384Z,84.01
2019-01-25T09:19:05.372Z,84.12
2019-01-25T09:20:05.361Z,83.81
2019-01-25T09:21:05.350Z,83.76
2019-01-25T09:22:05.340Z,83.39
2019-01-25T09:23:05.336Z,83.07
2019-01-25T09:24:05.321Z,83.17
2019-01-25T09:25:05.307Z,83.49
2019-01-25T09:26:05.297Z,84.12
2019-01-25T09:27:05.286Z,84.33
2019-01-25T09:28:05.277Z,83.81
2019-01-25T09:29:05.264Z,83.49
2019-01-25T09:30:05.254Z,83.70
2019-01-25T09:31:05.242Z,83.91
2019-01-25T09:32:05.233Z,83.81
2019-01-25T09:33:05.226Z,83.81
2019-01-25T09:34:05.216Z,84.01
2019-01-25T09:35:06.841Z,84.44
2019-01-25T09:36:05.191Z,84.96
2019-01-25T09:37:05.182Z,85.87
2019-01-25T09:38:05.168Z,86.51
2019-01-25T09:39:05.159Z,86.57
2019-01-25T09:40:05.146Z,86.04
2019-01-25T09:41:05.138Z,85.31
2019-01-25T09:42:05.124Z,84.36
2019-01-25T09:43:05.119Z,82.99
2019-01-25T09:44:05.102Z,82.11
2019-01-25T09:45:05.092Z,81.90
2019-01-25T09:46:05.081Z,80.85
2019-01-25T09:47:05.071Z,80.29
2019-01-25T09:48:05.061Z,81.06
2019-01-25T09:49:05.057Z,80.82
2019-01-25T09:50:05.039Z,80.82
2019-01-25T09:51:05.038Z,79.38
2019-01-25T09:52:05.023Z,79.80
2019-01-25T09:53:05.005Z,79.69
2019-01-25T09:54:04.994Z,79.49
2019-01-25T09:55:04.983Z,80.11
2019-01-25T09:56:04.973Z,80.75
2019-01-25T09:57:04.962Z,81.31
2019-01-25T09:58:04.958Z,80.96
2019-01-25T09:59:04.944Z,81.48
2019-01-25T10:00:04.930Z,80.33
2019-01-25T10:01:04.979Z,81.16
2019-01-25T10:02:04.910Z,80.96
2019-01-25T10:03:04.898Z,80.75
2019-01-25T10:04:04.886Z,80.43
2019-01-25T10:05:04.875Z,80.75
2019-01-25T10:06:04.866Z,80.47
2019-01-25T10:07:04.859Z,80.22
2019-01-25T10:08:04.844Z,80.96
2019-01-25T10:09:04.834Z,80.96
2019-01-25T10:10:04.824Z,81.52
2019-01-25T10:11:04.811Z,80.85
2019-01-25T10:12:04.799Z,81.16
2019-01-25T10:13:04.789Z,80.05
2019-01-25T10:14:04.778Z,79.52
2019-01-25T10:15:04.767Z,80.15
2019-01-25T10:16:04.757Z,80.05
2019-01-25T10:17:04.747Z,80.99
2019-01-25T10:18:04.737Z,81.41
2019-01-25T10:19:04.724Z,81.10
2019-01-25T10:20:04.719Z,81.84
2019-01-25T10:21:04.703Z,81.84
2019-01-25T10:22:04.697Z,81.20
2019-01-25T10:23:04.681Z,81.20
2019-01-25T10:24:04.670Z,80.99
2019-01-25T10:25:24.322Z,81.52
2019-01-25T10:26:46.215Z,80.79
2019-01-25T10:27:47.278Z,81.73
2019-01-25T10:29:27.749Z,80.99
2019-01-25T10:30:27.721Z,81.41
2019-01-25T10:31:27.709Z,81.62
2019-01-25T10:32:27.701Z,82.04
2019-01-25T10:33:27.689Z,81.73
2019-01-25T10:34:27.683Z,82.15
2019-01-25T10:35:27.668Z,82.46
2019-01-25T10:36:27.655Z,82.57
2019-01-25T10:37:27.649Z,82.32
2019-01-25T10:38:27.634Z,81.70
2019-01-25T10:39:27.636Z,80.75
2019-01-25T10:40:27.614Z,80.96
2019-01-25T10:41:27.601Z,80.99
2019-01-25T10:42:27.599Z,80.96
2019-01-25T10:43:27.578Z,81.70
2019-01-25T10:44:27.568Z,82.22
2019-01-25T10:45:27.557Z,82.01
2019-01-25T10:46:27.549Z,82.29
2019-01-25T10:47:27.536Z,80.82
2019-01-25T10:48:27.524Z,81.13
2019-01-25T10:49:27.513Z,79.24
2019-01-25T10:50:27.508Z,79.13
2019-01-25T10:51:27.495Z,78.71
2019-01-25T10:52:27.482Z,76.82
2019-01-25T10:53:27.470Z,76.82
2019-01-25T10:54:27.464Z,77.94
2019-01-25T10:55:27.448Z,77.84
2019-01-25T10:56:27.438Z,77.91
2019-01-25T10:57:27.426Z,76.43
2019-01-25T10:58:27.415Z,75.78
2019-01-25T10:59:27.408Z,75.67
2019-01-25T11:00:27.396Z,75.78
2019-01-25T11:01:27.384Z,75.56
2019-01-25T11:02:27.377Z,73.68
2019-01-25T11:03:27.364Z,73.22
2019-01-25T11:04:27.349Z,72.06
2019-01-25T11:05:27.340Z,70.60
2019-01-25T11:06:27.328Z,69.23
2019-01-25T11:07:27.317Z,68.92
2019-01-25T11:08:27.309Z,68.29
2019-01-25T11:09:27.296Z,68.26
2019-01-25T11:10:27.283Z,67.63
2019-01-25T11:11:27.300Z,67.32
2019-01-25T11:12:27.263Z,67.29
2019-01-25T11:13:27.254Z,67.29
2019-01-25T11:14:27.242Z,66.03
2019-01-25T11:15:27.231Z,67.15
2019-01-25T11:16:27.218Z,65.79
2019-01-25T11:17:27.206Z,65.03
2019-01-25T11:18:27.195Z,64.40
2019-01-25T11:19:27.185Z,64.50
2019-01-25T11:20:27.190Z,64.37
2019-01-25T11:21:27.169Z,63.11
2019-01-25T11:22:27.153Z,62.27
2019-01-25T11:23:27.141Z,62.27
2019-01-25T11:24:27.131Z,61.96
2019-01-25T11:25:27.125Z,62.59
2019-01-25T11:26:27.114Z,61.44
2019-01-25T11:27:27.099Z,61.22
2019-01-25T11:28:27.086Z,61.85
2019-01-25T11:30:55.037Z,62.07
2019-01-25T11:33:43.603Z,62.45
2019-01-25T11:34:41.090Z,63.42
2019-01-25T11:36:04.994Z,62.48
2019-01-25T11:37:04.990Z,62.59
2019-01-25T11:38:04.973Z,61.33
2019-01-25T11:39:23.108Z,61.44
2019-01-25T11:40:46.999Z,61.65
2019-01-25T11:42:06.621Z,61.65
2019-01-25T11:43:49.112Z,61.54
2019-01-25T11:44:29.011Z,63.04
2019-01-25T11:45:29.011Z,62.80
2019-01-25T11:46:28.989Z,61.25
2019-01-25T11:47:28.978Z,60.83
2019-01-25T11:48:49.622Z,61.57
2019-01-25T11:50:11.010Z,61.68
2019-01-25T11:51:11.062Z,61.46
2019-01-25T11:52:10.984Z,61.78
2019-01-25T11:53:30.607Z,62.09
2019-01-25T11:54:52.530Z,62.41
2019-01-25T11:55:52.499Z,62.41
2019-01-25T11:57:34.536Z,62.09
2019-01-25T11:58:34.526Z,61.46
2019-01-25T11:59:52.652Z,62.51
2019-01-25T12:01:16.551Z,62.38
2019-01-25T12:02:20.903Z,61.36
2019-01-25T12:03:16.532Z,61.44
2019-01-25T12:04:16.517Z,61.54
2019-01-25T12:05:16.526Z,61.12
2019-01-25T12:06:16.498Z,61.65
2019-01-25T12:07:16.486Z,62.27
2019-01-25T12:08:16.476Z,62.80
2019-01-25T12:09:16.468Z,62.48
2019-01-25T12:10:16.451Z,62.59
2019-01-25T12:11:16.441Z,62.59
2019-01-25T12:12:16.429Z,63.01
2019-01-25T12:13:16.583Z,61.02
2019-01-25T12:14:16.410Z,61.36
2019-01-25T12:15:16.395Z,62.19
2019-01-25T12:16:16.385Z,63.04
2019-01-25T12:17:16.374Z,63.04
2019-01-25T12:18:16.388Z,61.99
2019-01-25T12:19:16.357Z,62.09
2019-01-25T12:20:16.343Z,63.04
2019-01-25T12:21:16.337Z,61.49
2019-01-25T12:22:16.320Z,60.65
2019-01-25T12:23:16.309Z,60.13
2019-01-25T12:24:16.299Z,60.13
2019-01-25T12:25:16.287Z,61.41
2019-01-25T12:26:16.282Z,60.16
2019-01-25T12:27:16.264Z,59.84
2019-01-25T12:28:16.256Z,59.63
2019-01-25T12:29:16.264Z,59.53
2019-01-25T12:30:16.234Z,60.26
2019-01-25T12:31:16.226Z,61.63
2019-01-25T12:32:16.210Z,61.41
2019-01-25T12:33:16.200Z,61.34
2019-01-25T12:34:16.188Z,61.13
2019-01-25T12:35:16.176Z,60.08
2019-01-25T12:36:16.167Z,60.92
2019-01-25T12:37:16.155Z,61.23
2019-01-25T12:38:16.143Z,61.76
2019-01-25T12:39:16.133Z,61.44
2019-01-25T12:40:16.121Z,61.97
2019-01-25T12:41:16.117Z,62.60
2019-01-25T12:42:16.103Z,62.81
2019-01-25T12:43:16.088Z,61.68
2019-01-25T12:44:16.079Z,61.55
2019-01-25T12:45:16.066Z,62.10
2019-01-25T12:46:16.056Z,62.31
2019-01-25T12:47:16.050Z,62.84
2019-01-25T12:48:16.040Z,63.57
2019-01-25T12:49:16.038Z,62.41
2019-01-25T12:50:16.011Z,63.15
2019-01-25T12:51:16.006Z,63.26
2019-01-25T12:52:15.989Z,63.46
2019-01-25T12:53:15.980Z,62.62
2019-01-25T12:54:15.971Z,63.15
2019-01-25T12:55:15.957Z,63.01
2019-01-25T12:56:15.947Z,63.26
2019-01-25T12:57:15.934Z,63.67
2019-01-25T12:58:15.926Z,63.99
2019-01-25T12:59:15.913Z,64.51
2019-01-25T13:00:15.904Z,64.51
2019-01-25T13:01:15.890Z,64.83